createdAt,value
2018-07-22T00:00:28.986Z,10.60
2018-07-22T00:02:33.893Z,10.00
2018-07-22T00:04:39.473Z,11.87
2018-07-22T00:06:44.289Z,10.40
2018-07-22T00:08:49.983Z,11.93
2018-07-22T00:10:55.374Z,19.93
2018-07-22T00:13:00.719Z,14.70
2018-07-22T00:15:07.370Z,10.73
2018-07-22T00:17:12.192Z,12.00
2018-07-22T00:19:16.973Z,14.97
2018-07-22T00:21:21.731Z,11.40
2018-07-22T00:23:26.945Z,12.13
2018-07-22T00:25:31.858Z,15.33
2018-07-22T00:27:37.437Z,18.40
2018-07-22T00:29:42.307Z,13.93
2018-07-22T00:31:47.743Z,19.63
2018-07-22T00:33:52.585Z,14.97
2018-07-22T00:35:57.521Z,17.93
2018-07-22T00:38:02.441Z,13.33
2018-07-22T00:40:08.365Z,11.40
2018-07-22T00:42:13.360Z,12.70
2018-07-22T00:44:18.152Z,13.10
2018-07-22T00:46:22.973Z,15.60
2018-07-22T00:48:27.822Z,12.90
2018-07-22T00:50:33.322Z,16.23
2018-07-22T00:52:38.407Z,16.47
2018-07-22T00:54:43.163Z,12.47
2018-07-22T00:56:48.132Z,12.00
2018-07-22T00:58:52.946Z,16.13
2018-07-22T01:00:57.650Z,22.47
2018-07-22T01:03:02.427Z,12.87
2018-07-22T01:05:07.774Z,13.10
2018-07-22T01:07:12.549Z,13.10
2018-07-22T01:09:17.394Z,12.73
2018-07-22T01:11:22.149Z,24.70
2018-07-22T01:13:26.956Z,12.10
2018-07-22T01:15:31.801Z,10.93
2018-07-22T01:17:36.662Z,14.33
2018-07-22T01:19:41.198Z,14.73
2018-07-22T01:21:46.164Z,9.13
2018-07-22T01:23:51.100Z,23.20
2018-07-22T01:25:55.934Z,15.20
2018-07-22T01:28:00.778Z,19.90
2018-07-22T01:30:07.408Z,12.70
2018-07-22T01:32:12.134Z,27.00
2018-07-22T01:34:16.943Z,15.23
2018-07-22T01:36:21.663Z,11.30
2018-07-22T01:38:26.377Z,14.33
2018-07-22T01:40:31.273Z,17.87
2018-07-22T01:42:35.978Z,17.13
2018-07-22T01:44:40.719Z,23.73
2018-07-22T01:46:45.556Z,17.87
2018-07-22T01:51:06.089Z,18.50
2018-07-22T01:53:10.785Z,15.77
2018-07-22T01:55:15.647Z,16.27
2018-07-22T01:57:20.481Z,15.23
2018-07-22T01:59:25.391Z,14.83
2018-07-22T02:01:30.159Z,18.60
2018-07-22T02:03:35.178Z,23.70
2018-07-22T02:05:41.018Z,17.23
2018-07-22T02:07:45.823Z,16.80
2018-07-22T02:09:50.673Z,21.27
2018-07-22T02:11:55.665Z,15.73
2018-07-22T02:14:00.589Z,26.50
2018-07-22T02:16:05.399Z,17.00
2018-07-22T02:18:11.939Z,54.77
2018-07-22T02:20:17.042Z,16.47
2018-07-22T02:22:21.772Z,19.40
2018-07-22T02:24:26.467Z,20.73
2018-07-22T02:26:31.324Z,16.23
2018-07-22T02:28:36.311Z,15.57
2018-07-22T02:30:41.260Z,13.40
2018-07-22T02:32:46.237Z,21.17
2018-07-22T02:34:51.120Z,17.67
2018-07-22T02:36:55.973Z,21.13
2018-07-22T02:39:00.716Z,15.93
2018-07-22T02:41:05.678Z,17.73
2018-07-22T02:43:10.575Z,16.10
2018-07-22T02:45:15.320Z,16.53
2018-07-22T02:47:29.130Z,20.93
2018-07-22T02:49:33.856Z,21.10
2018-07-22T02:51:38.858Z,19.37
2018-07-22T02:53:43.636Z,15.00
2018-07-22T02:55:48.470Z,16.40
2018-07-22T02:57:53.309Z,18.60
2018-07-22T02:59:58.120Z,24.13
2018-07-22T03:02:02.922Z,20.07
2018-07-22T03:04:09.010Z,17.73
2018-07-22T03:06:14.046Z,21.97
2018-07-22T03:08:19.426Z,17.27
2018-07-22T03:10:25.389Z,16.63
2018-07-22T03:12:30.246Z,20.60
2018-07-22T03:14:35.141Z,20.20
2018-07-22T03:16:39.908Z,18.70
2018-07-22T03:18:44.944Z,18.93
2018-07-22T03:20:49.780Z,16.87
2018-07-22T03:22:54.526Z,20.23
2018-07-22T03:24:59.237Z,16.53
2018-07-22T03:27:03.962Z,17.50
2018-07-22T03:29:08.717Z,26.17
2018-07-22T03:31:13.556Z,19.03
2018-07-22T03:33:18.411Z,24.50
2018-07-22T03:35:23.285Z,20.67
2018-07-22T03:37:28.142Z,22.17
2018-07-22T03:39:32.865Z,18.57
2018-07-22T03:41:37.590Z,19.23
2018-07-22T03:43:42.368Z,15.70
2018-07-22T03:45:47.186Z,19.37
2018-07-22T03:47:51.945Z,17.83
2018-07-22T03:49:56.723Z,21.00
2018-07-22T03:52:01.818Z,19.17
2018-07-22T03:54:06.632Z,24.47
2018-07-22T03:56:11.409Z,21.90
2018-07-22T03:58:16.304Z,20.20
2018-07-22T04:00:21.145Z,21.03
2018-07-22T04:02:25.836Z,22.53
2018-07-22T04:04:30.605Z,27.17
2018-07-22T04:06:36.419Z,21.27
2018-07-22T04:08:41.456Z,26.50
2018-07-22T04:10:46.489Z,26.20
2018-07-22T04:12:51.219Z,22.37
2018-07-22T04:14:56.354Z,21.93
2018-07-22T04:17:01.109Z,29.57
2018-07-22T04:19:05.835Z,25.07
2018-07-22T04:21:10.668Z,20.40
2018-07-22T04:23:15.457Z,21.00
2018-07-22T04:25:20.164Z,22.93
2018-07-22T04:27:24.994Z,22.57
2018-07-22T04:29:29.854Z,21.60
2018-07-22T04:31:35.074Z,21.60
2018-07-22T04:33:39.900Z,34.17
2018-07-22T04:35:44.860Z,28.03
2018-07-22T04:37:49.553Z,25.27
2018-07-22T04:39:54.530Z,22.53
2018-07-22T04:41:59.458Z,21.00
2018-07-22T04:44:04.168Z,26.27
2018-07-22T04:46:09.059Z,21.10
2018-07-22T04:48:13.920Z,22.40
2018-07-22T04:50:18.853Z,22.83
2018-07-22T04:52:23.705Z,20.77
2018-07-22T04:54:28.468Z,25.63
2018-07-22T04:56:33.467Z,22.53
2018-07-22T04:58:38.218Z,22.33
2018-07-22T05:00:43.105Z,22.83
2018-07-22T05:02:47.913Z,24.43
2018-07-22T05:04:52.785Z,24.30
2018-07-22T05:06:57.629Z,21.13
2018-07-22T05:09:02.394Z,29.67
2018-07-22T05:11:08.176Z,29.17
2018-07-22T05:13:12.964Z,27.30
2018-07-22T05:15:17.922Z,25.40
2018-07-22T05:17:23.545Z,20.93
2018-07-22T05:19:28.336Z,23.53
2018-07-22T05:21:33.051Z,19.60
2018-07-22T05:23:37.895Z,25.23
2018-07-22T05:25:42.806Z,31.17
2018-07-22T05:27:47.551Z,27.97
2018-07-22T05:29:52.304Z,27.63
2018-07-22T05:31:57.234Z,22.50
2018-07-22T05:34:02.351Z,21.47
2018-07-22T05:36:07.869Z,20.13
2018-07-22T05:38:12.917Z,34.00
2018-07-22T05:40:17.643Z,25.20
2018-07-22T05:42:22.543Z,28.67
2018-07-22T05:44:27.673Z,24.27
2018-07-22T05:46:32.734Z,20.90
2018-07-22T05:48:38.173Z,22.97
2018-07-22T05:50:43.655Z,23.40
2018-07-22T05:52:49.634Z,27.80
2018-07-22T05:54:54.480Z,24.80
2018-07-22T05:56:59.386Z,26.57
2018-07-22T05:59:04.437Z,24.63
2018-07-22T06:01:13.505Z,22.20
2018-07-22T06:03:18.576Z,23.40
2018-07-22T06:05:23.330Z,20.77
2018-07-22T06:07:28.235Z,25.77
2018-07-22T06:09:33.020Z,22.17
2018-07-22T06:11:38.081Z,28.20
2018-07-22T06:13:44.090Z,25.10
2018-07-22T06:15:49.089Z,29.20
2018-07-22T06:17:53.861Z,20.33
2018-07-22T06:19:58.795Z,21.00
2018-07-22T06:22:03.499Z,25.20
2018-07-22T06:24:08.559Z,23.50
2018-07-22T06:26:13.428Z,26.67
2018-07-22T06:30:18.474Z,23.80
2018-07-22T06:32:23.505Z,24.67
2018-07-22T06:34:28.386Z,23.67
2018-07-22T06:36:34.070Z,23.70
2018-07-22T06:38:38.849Z,26.63
2018-07-22T06:40:43.971Z,25.10
2018-07-22T06:42:48.875Z,19.27
2018-07-22T06:44:54.020Z,28.80
2018-07-22T06:46:58.793Z,22.83
2018-07-22T06:49:03.705Z,21.40
2018-07-22T06:51:08.540Z,21.93
2018-07-22T06:53:13.671Z,22.17
2018-07-22T06:55:18.759Z,16.87
2018-07-22T06:57:23.798Z,19.40
2018-07-22T06:59:28.936Z,20.07
2018-07-22T07:01:34.250Z,17.53
2018-07-22T07:03:39.247Z,17.10
2018-07-22T07:05:43.703Z,18.50
2018-07-22T07:07:49.432Z,18.30
2018-07-22T07:09:54.232Z,18.90
2018-07-22T07:11:59.034Z,20.07
2018-07-22T07:14:03.913Z,19.67
2018-07-22T07:16:08.759Z,21.50
2018-07-22T07:18:13.549Z,27.50
2018-07-22T07:20:18.328Z,19.63
2018-07-22T07:22:23.639Z,21.97
2018-07-22T07:24:28.389Z,18.23
2018-07-22T07:26:33.183Z,17.50
2018-07-22T07:28:38.701Z,19.27
2018-07-22T07:30:43.720Z,15.73
2018-07-22T07:32:48.619Z,28.47
2018-07-22T07:34:53.364Z,21.17
2018-07-22T07:36:58.197Z,29.90
2018-07-22T07:39:03.084Z,15.53
2018-07-22T07:41:08.277Z,16.90
2018-07-22T07:43:13.149Z,16.20
2018-07-22T07:45:17.822Z,14.27
2018-07-22T07:47:24.583Z,13.07
2018-07-22T07:49:29.390Z,13.60
2018-07-22T07:51:34.594Z,14.87
2018-07-22T07:53:39.518Z,15.53
2018-07-22T07:55:44.332Z,12.53
2018-07-22T07:57:49.130Z,22.47
2018-07-22T07:59:54.874Z,14.27
2018-07-22T08:01:59.913Z,13.07
2018-07-22T08:04:04.790Z,12.50
2018-07-22T08:06:09.844Z,14.00
2018-07-22T08:08:14.631Z,16.57
2018-07-22T08:10:19.480Z,13.57
2018-07-22T08:12:24.271Z,12.07
2018-07-22T08:14:29.340Z,14.37
2018-07-22T08:16:35.034Z,12.73
2018-07-22T08:18:39.967Z,15.33
2018-07-22T08:20:44.783Z,14.03
2018-07-22T08:22:49.609Z,16.57
2018-07-22T08:24:54.406Z,16.20
2018-07-22T08:26:59.285Z,8.27
2018-07-22T08:29:29.214Z,13.90
2018-07-22T08:31:34.036Z,10.27
2018-07-22T08:33:38.820Z,15.40
2018-07-22T08:35:43.684Z,8.57
2018-07-22T08:37:49.264Z,13.57
2018-07-22T08:39:55.364Z,11.57
2018-07-22T08:42:00.470Z,12.20
2018-07-22T08:44:05.328Z,13.30
2018-07-22T08:46:10.267Z,13.30
2018-07-22T08:48:15.165Z,11.93
2018-07-22T08:50:20.193Z,12.03
2018-07-22T08:52:24.953Z,13.30
2018-07-22T08:54:30.499Z,18.57
2018-07-22T08:56:35.461Z,10.73
2018-07-22T08:58:40.163Z,16.43
2018-07-22T09:00:44.563Z,12.63
2018-07-22T09:02:49.342Z,12.60
2018-07-22T09:04:54.163Z,13.80
2018-07-22T09:06:59.110Z,25.73
2018-07-22T09:09:06.720Z,11.10
2018-07-22T09:11:11.632Z,23.03
2018-07-22T09:13:16.663Z,11.10
2018-07-22T09:15:21.900Z,21.43
2018-07-22T09:17:27.066Z,8.90
2018-07-22T09:19:32.268Z,10.87
2018-07-22T09:21:37.472Z,8.80
2018-07-22T09:23:42.959Z,8.40
2018-07-22T09:25:47.543Z,12.67
2018-07-22T09:27:55.515Z,8.90
2018-07-22T09:30:00.609Z,9.20
2018-07-22T09:32:05.672Z,9.60
2018-07-22T09:34:10.546Z,13.20
2018-07-22T09:36:15.568Z,12.17
2018-07-22T09:38:20.460Z,9.03
2018-07-22T09:40:25.398Z,14.97
2018-07-22T09:42:30.417Z,11.10
2018-07-22T09:44:35.456Z,9.67
2018-07-22T09:46:40.748Z,11.47
2018-07-22T09:48:45.927Z,4.73
2018-07-22T09:50:51.325Z,8.87
2018-07-22T09:52:56.297Z,14.40
2018-07-22T09:55:01.695Z,7.43
2018-07-22T09:57:06.873Z,9.50
2018-07-22T09:59:12.321Z,12.07
2018-07-22T10:01:18.308Z,6.77
2018-07-22T10:03:25.100Z,6.43
2018-07-22T10:05:30.193Z,8.93
2018-07-22T10:07:34.926Z,10.93
2018-07-22T10:09:40.664Z,8.47
2018-07-22T10:11:45.665Z,7.03
2018-07-22T10:13:50.685Z,4.80
2018-07-22T10:15:55.830Z,11.80
2018-07-22T10:18:00.939Z,6.20
2018-07-22T10:20:05.862Z,7.37
2018-07-22T10:22:10.904Z,9.20
2018-07-22T10:24:16.231Z,10.60
2018-07-22T10:26:21.387Z,6.57
2018-07-22T10:28:26.338Z,9.70
2018-07-22T10:30:31.529Z,12.63
2018-07-22T10:32:37.429Z,8.97
2018-07-22T10:34:42.667Z,8.67
2018-07-22T10:36:47.816Z,7.50
2018-07-22T10:38:52.528Z,13.10
2018-07-22T10:40:58.205Z,9.80
2018-07-22T10:43:03.351Z,10.40
2018-07-22T10:45:08.310Z,6.20
2018-07-22T10:47:13.741Z,10.17
2018-07-22T10:49:21.496Z,5.53
2018-07-22T10:51:26.605Z,5.00
2018-07-22T10:53:31.762Z,6.63
2018-07-22T10:55:36.832Z,11.30
2018-07-22T10:57:42.565Z,5.37
2018-07-22T10:59:47.460Z,6.23
2018-07-22T11:01:52.368Z,8.00
2018-07-22T11:03:59.252Z,5.20
2018-07-22T11:06:04.336Z,8.07
2018-07-22T11:08:09.168Z,7.73
2018-07-22T11:10:14.727Z,5.50
2018-07-22T11:12:19.710Z,4.63
2018-07-22T11:14:24.881Z,6.87
2018-07-22T11:16:29.839Z,7.87
2018-07-22T11:18:34.942Z,6.40
2018-07-22T11:20:40.157Z,7.87
2018-07-22T11:22:45.362Z,7.20
2018-07-22T11:24:50.742Z,6.13
2018-07-22T11:26:55.808Z,4.43
2018-07-22T11:29:00.845Z,8.33
2018-07-22T11:31:06.065Z,6.53
2018-07-22T11:33:11.246Z,7.10
2018-07-22T11:35:16.081Z,3.73
2018-07-22T11:37:21.378Z,15.07
2018-07-22T11:39:26.350Z,6.60
2018-07-22T11:41:31.421Z,6.67
2018-07-22T11:43:36.426Z,10.23
2018-07-22T11:45:41.285Z,5.47
2018-07-22T11:47:46.279Z,6.87
2018-07-22T11:49:51.212Z,11.80
2018-07-22T11:51:56.548Z,5.83
2018-07-22T11:54:01.583Z,4.90
2018-07-22T11:56:07.457Z,5.30
2018-07-22T11:58:12.981Z,6.43
2018-07-22T12:00:18.473Z,15.33
2018-07-22T12:02:23.553Z,6.87
2018-07-22T12:04:28.495Z,7.53
2018-07-22T12:06:33.488Z,7.40
2018-07-22T12:08:39.337Z,4.77
2018-07-22T12:10:44.319Z,3.90
2018-07-22T12:12:49.410Z,8.83
2018-07-22T12:14:54.364Z,5.97
2018-07-22T12:16:59.357Z,7.77
2018-07-22T12:19:04.192Z,7.17
2018-07-22T12:21:09.096Z,4.37
2018-07-22T12:23:13.924Z,5.97
2018-07-22T12:25:18.941Z,3.77
2018-07-22T12:27:23.917Z,6.37
2018-07-22T12:29:28.996Z,7.80
2018-07-22T12:31:34.153Z,6.07
2018-07-22T12:33:39.747Z,7.30
2018-07-22T12:35:44.930Z,11.00
2018-07-22T12:37:49.924Z,8.20
2018-07-22T12:39:54.999Z,7.33
2018-07-22T12:42:00.179Z,7.57
2018-07-22T12:44:05.193Z,6.17
2018-07-22T12:46:10.240Z,6.77
2018-07-22T12:48:15.305Z,7.30
2018-07-22T12:50:20.180Z,8.87
2018-07-22T12:52:25.767Z,3.87
2018-07-22T12:54:30.912Z,9.00
2018-07-22T12:56:35.967Z,4.60
2018-07-22T12:58:41.138Z,5.97
2018-07-22T13:00:46.308Z,5.70
2018-07-22T13:02:51.341Z,6.30
2018-07-22T13:04:56.556Z,7.20
2018-07-22T13:07:01.786Z,7.17
2018-07-22T13:09:09.988Z,6.80
2018-07-22T13:11:15.575Z,6.67
2018-07-22T13:13:20.491Z,4.03
2018-07-22T13:15:25.417Z,4.47
2018-07-22T13:17:30.525Z,5.90
2018-07-22T13:19:37.388Z,6.00
2018-07-22T13:21:42.339Z,6.50
2018-07-22T13:23:48.199Z,6.73
2018-07-22T13:25:53.334Z,6.57
2018-07-22T13:27:58.645Z,4.33
2018-07-22T13:30:03.694Z,7.23
2018-07-22T13:32:08.861Z,5.47
2018-07-22T13:34:14.132Z,5.83
2018-07-22T13:36:19.269Z,6.57
2018-07-22T13:38:24.636Z,7.27
2018-07-22T13:40:29.666Z,4.13
2018-07-22T13:42:34.961Z,11.57
2018-07-22T13:44:40.260Z,6.33
2018-07-22T13:46:45.865Z,5.43
2018-07-22T13:48:51.173Z,4.30
2018-07-22T13:50:56.165Z,6.23
2018-07-22T13:53:01.213Z,6.07
2018-07-22T13:55:06.447Z,10.63
2018-07-22T13:57:11.136Z,9.73
2018-07-22T13:59:16.645Z,13.80
2018-07-22T14:01:21.766Z,6.60
2018-07-22T14:03:29.810Z,8.27
2018-07-22T14:05:35.401Z,5.83
2018-07-22T14:07:41.129Z,10.93
2018-07-22T14:09:46.441Z,15.93
2018-07-22T14:11:51.725Z,5.93
2018-07-22T14:13:57.628Z,7.63
2018-07-22T14:16:02.811Z,4.47
2018-07-22T14:18:08.194Z,7.40
2018-07-22T14:20:13.508Z,9.40
2018-07-22T14:22:18.767Z,6.87
2018-07-22T14:24:24.108Z,6.70
2018-07-22T14:26:29.319Z,5.10
2018-07-22T14:28:34.752Z,8.37
2018-07-22T14:30:39.893Z,5.63
2018-07-22T14:32:45.079Z,5.80
2018-07-22T14:34:50.333Z,6.60
2018-07-22T14:36:55.807Z,8.53
2018-07-22T14:39:01.176Z,6.60
2018-07-22T14:41:06.726Z,4.30
2018-07-22T14:43:11.917Z,4.43
2018-07-22T14:45:17.069Z,4.93
2018-07-22T14:47:22.164Z,6.17
2018-07-22T14:49:27.431Z,5.37
2018-07-22T14:51:32.936Z,6.17
2018-07-22T14:53:37.907Z,7.97
2018-07-22T14:55:42.906Z,5.83
2018-07-22T14:57:48.094Z,8.73
2018-07-22T14:59:53.215Z,4.33
2018-07-22T15:01:58.335Z,11.07
2018-07-22T15:04:05.486Z,9.27
2018-07-22T15:06:10.678Z,5.73
2018-07-22T15:08:18.014Z,18.60
2018-07-22T15:10:24.788Z,6.17
2018-07-22T15:12:31.297Z,5.23
2018-07-22T15:14:36.810Z,7.00
2018-07-22T15:16:43.216Z,9.87
2018-07-22T15:18:49.178Z,12.03
2018-07-22T15:20:54.383Z,4.93
2018-07-22T15:23:00.233Z,8.37
2018-07-22T15:25:07.683Z,8.50
2018-07-22T15:27:12.890Z,7.20
2018-07-22T15:29:18.894Z,6.73
2018-07-22T15:31:25.670Z,6.40
2018-07-22T15:33:30.686Z,6.57
2018-07-22T15:35:35.864Z,5.97
2018-07-22T15:37:40.865Z,7.10
2018-07-22T15:39:46.114Z,7.47
2018-07-22T15:41:53.912Z,7.00
2018-07-22T15:44:01.973Z,8.60
2018-07-22T15:46:08.629Z,7.40
2018-07-22T15:48:14.344Z,8.43
2018-07-22T15:50:20.423Z,11.80
2018-07-22T15:52:27.956Z,9.63
2018-07-22T15:54:34.190Z,13.10
2018-07-22T15:56:39.104Z,5.90
2018-07-22T15:58:45.659Z,11.27
2018-07-22T16:00:52.655Z,6.63
2018-07-22T16:03:00.894Z,9.27
2018-07-22T16:05:07.983Z,10.50
2018-07-22T16:07:13.227Z,6.60
2018-07-22T16:09:19.345Z,6.23
2018-07-22T16:11:26.071Z,5.77
2018-07-22T16:13:31.707Z,6.93
2018-07-22T16:15:39.450Z,9.97
2018-07-22T16:17:46.163Z,9.37
2018-07-22T16:19:51.960Z,9.00
2018-07-22T16:21:57.039Z,5.63
2018-07-22T16:24:02.680Z,5.57
2018-07-22T16:26:08.523Z,7.83
2018-07-22T16:28:14.543Z,7.53
2018-07-22T16:30:19.504Z,10.20
2018-07-22T16:32:24.478Z,8.10
2018-07-22T16:34:30.733Z,11.63
2018-07-22T16:36:35.764Z,12.20
2018-07-22T16:38:41.957Z,9.00
2018-07-22T16:40:49.974Z,7.47
2018-07-22T16:42:55.953Z,8.00
2018-07-22T16:45:02.047Z,11.63
2018-07-22T16:47:08.226Z,8.83
2018-07-22T16:49:14.382Z,8.37
2018-07-22T16:51:23.642Z,12.27
2018-07-22T16:53:30.800Z,6.33
2018-07-22T16:55:37.231Z,18.03
2018-07-22T16:57:44.172Z,8.30
2018-07-22T16:59:50.240Z,8.20
2018-07-22T17:01:58.240Z,8.00
2018-07-22T17:04:04.137Z,6.53
2018-07-22T17:06:09.407Z,9.27
2018-07-22T17:08:14.601Z,8.83
2018-07-22T17:10:19.828Z,8.97
2018-07-22T17:12:24.976Z,16.90
2018-07-22T17:14:30.164Z,8.50
2018-07-22T17:16:35.392Z,11.23
2018-07-22T17:18:40.522Z,10.87
2018-07-22T17:20:45.493Z,13.30
2018-07-22T17:22:50.696Z,6.73
2018-07-22T17:24:55.816Z,5.37
2018-07-22T17:27:00.991Z,10.83
2018-07-22T17:29:06.188Z,6.93
2018-07-22T17:31:11.261Z,9.90
2018-07-22T17:33:16.769Z,6.57
2018-07-22T17:35:21.790Z,9.03
2018-07-22T17:37:27.393Z,8.50
2018-07-22T17:39:32.234Z,6.30
2018-07-22T17:41:37.399Z,7.00
2018-07-22T17:43:43.453Z,8.23
2018-07-22T17:45:48.333Z,6.70
2018-07-22T17:47:54.149Z,11.53
2018-07-22T17:49:59.341Z,7.47
2018-07-22T17:52:04.562Z,12.57
2018-07-22T17:54:09.890Z,8.00
2018-07-22T17:56:15.960Z,6.70
2018-07-22T17:58:22.393Z,7.90
2018-07-22T18:00:28.749Z,7.97
2018-07-22T18:02:34.157Z,8.80
2018-07-22T18:04:39.679Z,7.63
2018-07-22T18:06:47.017Z,9.07
2018-07-22T18:08:54.272Z,9.63
2018-07-22T18:10:59.544Z,6.80
2018-07-22T18:13:04.646Z,14.27
2018-07-22T18:15:10.260Z,6.00
2018-07-22T18:17:15.577Z,10.10
2018-07-22T18:19:20.730Z,12.53
2018-07-22T18:21:27.560Z,7.77
2018-07-22T18:23:35.926Z,6.90
2018-07-22T18:25:42.770Z,33.20
2018-07-22T18:27:51.639Z,7.60
2018-07-22T18:30:00.054Z,12.07
2018-07-22T18:32:07.092Z,6.83
2018-07-22T18:34:13.803Z,7.50
2018-07-22T18:36:21.770Z,6.83
2018-07-22T18:38:29.813Z,11.23
2018-07-22T18:40:36.798Z,8.27
2018-07-22T18:42:43.950Z,8.10
2018-07-22T18:44:50.737Z,14.60
2018-07-22T18:46:57.724Z,7.90
2018-07-22T18:49:04.552Z,9.27
2018-07-22T18:51:15.715Z,8.50
2018-07-22T18:53:23.053Z,6.57
2018-07-22T18:55:31.520Z,6.93
2018-07-22T18:57:40.414Z,10.77
2018-07-22T18:59:50.019Z,7.77
2018-07-22T19:02:00.808Z,9.00
2018-07-22T19:06:25.892Z,7.87
2018-07-22T19:08:34.927Z,9.27
2018-07-22T19:10:44.864Z,8.60
2018-07-22T19:12:53.760Z,7.40
2018-07-22T19:15:03.285Z,8.10
2018-07-22T19:17:13.611Z,9.50
2018-07-22T19:19:23.530Z,7.57
2018-07-22T19:21:32.548Z,7.63
2018-07-22T19:23:39.527Z,5.60
2018-07-22T19:32:11.726Z,6.23
2018-07-22T19:34:20.098Z,4.17
2018-07-22T19:36:28.896Z,4.37
2018-07-22T19:38:38.641Z,3.60
2018-07-22T19:40:48.290Z,4.00
2018-07-22T19:43:00.891Z,9.03
2018-07-22T19:45:09.543Z,7.97
2018-07-22T19:47:19.777Z,8.73
2018-07-22T19:49:27.641Z,3.30
2018-07-22T19:51:38.715Z,3.60
2018-07-22T19:53:45.729Z,8.73
2018-07-22T19:55:52.295Z,7.13
2018-07-22T19:58:00.075Z,4.10
2018-07-22T20:00:07.356Z,3.20
2018-07-22T20:02:14.107Z,5.67
2018-07-22T20:04:21.747Z,5.20
2018-07-22T20:06:28.376Z,3.20
2018-07-22T20:08:35.921Z,4.27
2018-07-22T20:10:41.715Z,3.10
2018-07-22T20:12:47.543Z,10.20
2018-07-22T20:14:53.069Z,4.00
2018-07-22T20:16:58.853Z,2.90
2018-07-22T20:19:04.425Z,2.57
2018-07-22T20:23:16.585Z,4.07
2018-07-22T20:25:21.838Z,4.70
2018-07-22T20:27:27.764Z,6.07
2018-07-22T20:29:33.261Z,5.30
2018-07-22T20:31:38.108Z,7.30
2018-07-22T20:33:44.020Z,5.40
2018-07-22T20:35:49.071Z,3.60
2018-07-22T20:38:01.586Z,3.80
2018-07-22T20:40:07.374Z,2.83
2018-07-22T20:42:16.032Z,9.53
2018-07-22T20:44:26.850Z,3.30
2018-07-22T20:46:31.877Z,4.23
2018-07-22T20:48:39.488Z,2.53
2018-07-22T20:50:44.884Z,2.60
2018-07-22T20:52:54.960Z,3.83
2018-07-22T20:55:00.446Z,3.37
2018-07-22T20:57:05.637Z,3.83
2018-07-22T20:59:11.181Z,3.87
2018-07-22T21:01:16.110Z,4.13
2018-07-22T21:03:21.128Z,4.10
2018-07-22T21:05:26.274Z,2.97
2018-07-22T21:07:31.191Z,7.33
2018-07-22T21:09:36.108Z,3.03
2018-07-22T21:13:50.434Z,16.40
2018-07-22T21:15:55.608Z,5.40
2018-07-22T21:18:00.817Z,4.80
2018-07-22T21:20:06.243Z,6.27
2018-07-22T21:22:11.132Z,3.23
2018-07-22T21:24:16.176Z,3.73
2018-07-22T21:26:21.080Z,3.43
2018-07-22T21:28:25.994Z,2.73
2018-07-22T21:30:31.211Z,3.90
2018-07-22T21:32:36.164Z,14.07
2018-07-22T21:34:41.066Z,3.27
2018-07-22T21:36:45.993Z,3.00
2018-07-22T21:38:50.932Z,2.53
2018-07-22T21:40:55.971Z,3.00
2018-07-22T21:43:00.951Z,4.00
2018-07-22T21:45:06.657Z,6.53
2018-07-22T21:47:12.488Z,4.60
2018-07-22T21:49:17.547Z,2.70
2018-07-22T21:51:22.723Z,4.13
2018-07-22T21:53:28.046Z,6.47
2018-07-22T21:55:32.872Z,5.60
2018-07-22T21:57:37.971Z,4.50
2018-07-22T21:59:43.356Z,6.13
2018-07-22T22:01:48.154Z,8.80
2018-07-22T22:03:53.107Z,3.37
2018-07-22T22:05:58.015Z,4.80
2018-07-22T22:08:03.088Z,4.00
2018-07-22T22:10:08.066Z,7.07
2018-07-22T22:12:13.244Z,8.63
2018-07-22T22:14:18.109Z,6.53
2018-07-22T22:16:22.987Z,4.90
2018-07-22T22:18:27.832Z,7.63
2018-07-22T22:20:32.941Z,4.40
2018-07-22T22:22:37.714Z,3.97
2018-07-22T22:24:42.762Z,13.30
2018-07-22T22:26:47.641Z,6.13
2018-07-22T22:28:52.528Z,6.27
2018-07-22T22:30:57.450Z,7.67
2018-07-22T22:33:02.357Z,7.97
2018-07-22T22:35:07.276Z,7.03
2018-07-22T22:37:12.102Z,11.60
2018-07-22T22:39:16.906Z,6.30
2018-07-22T22:41:22.608Z,5.53
2018-07-22T22:43:27.419Z,6.53
2018-07-22T22:45:33.048Z,4.00
2018-07-22T22:47:37.717Z,5.93
2018-07-22T22:49:42.563Z,8.57
2018-07-22T22:51:47.314Z,6.33
2018-07-22T22:53:52.392Z,8.17
2018-07-22T22:55:57.322Z,8.20
2018-07-22T22:59:19.401Z,6.50
2018-07-22T23:01:24.428Z,2.67
2018-07-22T23:03:29.344Z,10.13
2018-07-22T23:05:34.687Z,8.43
2018-07-22T23:07:39.542Z,5.53
2018-07-22T23:09:44.899Z,9.00
2018-07-22T23:11:49.700Z,7.10
2018-07-22T23:13:54.518Z,8.83
2018-07-22T23:15:59.342Z,6.73
2018-07-22T23:18:04.123Z,5.20
2018-07-22T23:20:08.890Z,7.33
2018-07-22T23:22:13.733Z,7.50
2018-07-22T23:24:18.499Z,5.67
2018-07-22T23:26:23.582Z,7.50
2018-07-22T23:28:28.304Z,5.90
2018-07-22T23:30:32.992Z,5.83
2018-07-22T23:32:37.706Z,6.70
2018-07-22T23:34:42.445Z,6.90
2018-07-22T23:36:47.242Z,6.80
2018-07-22T23:38:51.997Z,12.00
2018-07-22T23:40:56.823Z,5.33
2018-07-22T23:43:01.595Z,8.60
2018-07-22T23:45:06.587Z,6.93
2018-07-22T23:49:21.949Z,4.23
2018-07-22T23:51:26.699Z,6.50
2018-07-22T23:53:31.822Z,5.33
2018-07-22T23:55:36.660Z,4.00
2018-07-22T23:57:41.414Z,4.80
2018-07-22T23:59:46.149Z,9.60
